Terminal Aerodrome Forecast
Issued by NWS Green Bay, WI

Home | Current Version | Previous Version | Graphics & Text | Print | Product List | Glossary On
Versions: 1 2 3 4 5 6 7 8 9 10 11 12 13 14 15 16 17 18 19 20 21 22 23 24 25 26 27
000
FTUS43 KGRB 151407 AAB
TAFGRB
TAF AMD
KGRB 151407Z 1514/1612 22010KT 6SM -RADZ BR OVC008
      TEMPO 1514/1518 3SM -RADZ BR BKN008
     FM151800 28012G22KT P6SM BKN010
     FM152100 28015G25KT P6SM BKN030
     FM160200 29014G24KT P6SM BKN040=

USA.gov is the U.S. government's official web portal to all federal, state and local government web resources and services.